Time;durP1;ratioP1;P1;durP2;ratioP2;P2;SDS_P1;SDS_P2;PMS_P1;PMS_P2;Temp;Humidity;BMP_temperature;BMP_pressure;BME280_temperature;BME280_humidity;BME280_pressure;Samples;Min_cycle;Max_cycle;Signal;HPM_P1;HPM_P2
2022/01/04 00:02:33;;;;;;;;;24.25;19.75;;;;;10.27;63.93;100994.03;146600;652;46020;-79
2022/01/04 00:05:26;;;;;;;;;21.00;19.00;;;;;10.46;63.22;101004.62;146599;720;46017;-79
2022/01/04 00:08:18;;;;;;;;;19.25;19.25;;;;;10.61;62.48;101005.47;146602;573;46020;-79
2022/01/04 00:11:19;;;;;;;;;26.50;23.50;;;;;10.68;62.11;101009.28;146597;599;47011;-79
2022/01/04 00:14:11;;;;;;;;;22.75;20.25;;;;;10.70;61.47;101020.66;146601;591;46008;-79
2022/01/04 00:17:03;;;;;;;;;25.00;23.25;;;;;10.79;61.41;101028.06;146599;673;46016;-79
2022/01/04 00:19:55;;;;;;;;;22.25;21.75;;;;;10.83;61.36;101024.81;146602;581;46021;-87
2022/01/04 00:22:48;;;;;;;;;20.75;17.00;;;;;10.89;60.70;101024.25;146601;668;46030;-82
2022/01/04 00:25:40;;;;;;;;;29.75;25.50;;;;;10.85;61.78;101018.91;146599;574;47008;-83
2022/01/04 00:28:32;;;;;;;;;21.00;19.25;;;;;10.76;61.16;101015.81;146599;682;46016;-83
2022/01/04 00:31:24;;;;;;;;;28.00;25.00;;;;;10.66;61.37;101017.81;146602;641;46008;-85
2022/01/04 00:34:17;;;;;;;;;29.00;26.00;;;;;10.56;61.82;101012.12;146597;577;46016;-85
2022/01/04 00:37:09;;;;;;;;;26.00;21.75;;;;;10.49;62.04;101020.34;146601;569;46025;-83
2022/01/04 00:40:01;;;;;;;;;31.25;27.00;;;;;10.42;62.71;101030.28;146600;582;46010;-80
2022/01/04 00:42:55;;;;;;;;;25.50;21.50;;;;;10.31;64.27;101029.66;146604;605;45021;-76
2022/01/04 00:45:47;;;;;;;;;25.50;21.50;;;;;10.15;64.28;101025.28;146596;722;46016;-79
2022/01/04 00:51:51;;;;;;;;;25.25;21.50;;;;;9.99;65.93;101041.63;146598;572;46016;-82
2022/01/04 00:54:45;;;;;;;;;27.00;24.50;;;;;9.98;64.30;101044.16;146600;584;46020;-83
2022/01/04 00:57:37;;;;;;;;;29.00;25.50;;;;;9.98;63.89;101042.44;146595;617;47012;-83
2022/01/04 01:00:30;;;;;;;;;25.25;24.00;;;;;9.96;65.29;101038.84;146602;611;46020;-83
2022/01/04 01:03:22;;;;;;;;;23.75;21.25;;;;;9.96;65.08;101036.28;146597;636;47013;-82
2022/01/04 01:06:14;;;;;;;;;22.25;19.25;;;;;9.93;64.07;101038.69;146605;617;46020;-82
2022/01/04 01:09:08;;;;;;;;;21.25;19.25;;;;;9.90;64.73;101031.62;146597;692;47010;-81
2022/01/04 01:12:00;;;;;;;;;20.25;18.00;;;;;9.87;65.33;101021.06;146600;749;46008;-85
2022/01/04 01:14:52;;;;;;;;;18.00;17.00;;;;;9.86;64.51;101019.31;146598;634;46016;-84
2022/01/04 01:17:44;;;;;;;;;20.00;18.25;;;;;9.83;64.00;101026.00;146601;636;46020;-81
2022/01/04 01:20:37;;;;;;;;;22.75;18.25;;;;;9.81;64.79;101032.78;146596;606;47010;-81
2022/01/04 01:23:29;;;;;;;;;21.25;20.25;;;;;9.79;64.00;101029.22;146602;590;46020;-80
2022/01/04 01:26:22;;;;;;;;;33.25;27.50;;;;;9.77;65.40;101030.81;146600;566;47010;-81
2022/01/04 01:29:14;;;;;;;;;25.25;24.50;;;;;9.67;64.86;101025.09;146604;583;46008;-80
2022/01/04 01:32:06;;;;;;;;;29.50;26.50;;;;;9.61;66.09;101021.25;146600;569;46010;-76
2022/01/04 01:34:58;;;;;;;;;25.25;22.00;;;;;9.52;66.54;101023.28;146602;590;46008;-74
2022/01/04 01:37:51;;;;;;;;;18.75;17.00;;;;;9.44;65.70;101007.31;146597;569;47010;-73
2022/01/04 01:40:43;;;;;;;;;20.25;17.50;;;;;9.41;65.43;101001.94;146601;586;46020;-73
2022/01/04 01:43:35;;;;;;;;;18.75;16.50;;;;;8.39;65.75;100825.91;146598;616;46012;-71
2022/01/04 01:46:27;;;;;;;;;22.25;19.75;;;;;9.39;66.34;101011.31;146600;578;46020;-72
2022/01/04 01:49:20;;;;;;;;;20.75;20.00;;;;;9.39;65.40;100996.66;146598;575;46012;-74
2022/01/04 01:52:13;;;;;;;;;33.00;28.00;;;;;9.44;65.37;101003.03;146603;603;46020;-74
2022/01/04 01:55:05;;;;;;;;;31.50;25.50;;;;;9.47;65.43;101003.19;146597;705;46010;-77
2022/01/04 01:57:58;;;;;;;;;22.75;19.75;;;;;9.52;64.96;101011.22;146602;586;46020;-76
2022/01/04 02:00:50;;;;;;;;;16.25;16.00;;;;;9.56;65.54;101025.25;146600;575;46016;-77
2022/01/04 02:03:45;;;;;;;;;24.25;19.50;;;;;9.52;65.31;101023.28;146607;614;46021;-84
2022/01/04 02:06:38;;;;;;;;;18.50;16.50;;;;;9.47;65.83;101021.31;146604;579;46010;-77
2022/01/04 02:09:30;;;;;;;;;18.25;17.00;;;;;9.42;64.90;101016.66;146607;582;46008;-73
2022/01/04 02:12:23;;;;;;;;;21.75;16.25;;;;;9.41;66.00;101018.38;146598;595;46017;-73
2022/01/04 02:15:21;;;;;;;;;20.75;18.50;;;;;9.41;65.96;101022.66;146605;735;46008;-73
2022/01/04 02:18:13;;;;;;;;;15.50;14.25;;;;;9.40;66.53;101019.16;146598;577;46017;-74
2022/01/04 02:21:06;;;;;;;;;16.50;14.00;;;;;9.42;66.74;101011.50;146604;577;46020;-73
2022/01/04 02:23:58;;;;;;;;;15.25;15.00;;;;;9.37;67.12;101007.72;146601;611;46016;-72
2022/01/04 02:26:51;;;;;;;;;16.75;13.25;;;;;9.31;66.16;101004.75;146604;628;46008;-72
2022/01/04 02:29:43;;;;;;;;;15.00;15.00;;;;;9.27;67.17;101002.78;146601;621;46010;-74
2022/01/04 02:32:35;;;;;;;;;17.25;15.25;;;;;9.23;66.50;101002.59;146608;677;46008;-72
2022/01/04 02:35:33;;;;;;;;;13.75;13.25;;;;;9.22;66.17;101005.09;146605;599;46010;-72
2022/01/04 02:38:25;;;;;;;;;14.50;12.00;;;;;9.23;66.24;101007.78;146608;584;46008;-72
2022/01/04 02:41:17;;;;;;;;;12.50;10.00;;;;;9.20;67.12;101007.59;146605;567;46010;-72
2022/01/04 02:44:10;;;;;;;;;11.25;10.00;;;;;9.20;65.57;101017.06;146601;599;46020;-72
2022/01/04 02:47:02;;;;;;;;;13.50;12.50;;;;;9.21;65.11;101008.47;146600;592;46010;-72
2022/01/04 02:49:55;;;;;;;;;18.25;14.00;;;;;9.28;65.39;101020.09;146607;575;46008;-76
2022/01/04 02:52:48;;;;;;;;;12.75;12.00;;;;;9.32;65.01;101027.25;146601;595;46010;-80
2022/01/04 02:55:40;;;;;;;;;15.25;12.75;;;;;9.29;64.59;101021.91;146603;576;46020;-78
2022/01/04 02:58:32;;;;;;;;;13.75;12.50;;;;;9.22;64.51;101023.19;146603;565;46016;-79
2022/01/04 03:01:24;;;;;;;;;11.50;10.50;;;;;9.21;64.25;101034.34;146601;581;46020;-76
2022/01/04 03:04:17;;;;;;;;;29.75;27.50;;;;;9.21;65.09;101044.69;146596;635;47010;-78
2022/01/04 03:07:09;;;;;;;;;15.75;12.25;;;;;9.17;64.72;101040.16;146602;576;46020;-77
2022/01/04 03:10:01;;;;;;;;;13.00;10.50;;;;;9.11;65.25;101040.66;146597;700;47011;-77
2022/01/04 03:12:53;;;;;;;;;15.75;13.00;;;;;9.09;64.79;101038.78;146601;611;46008;-89
2022/01/04 03:15:45;;;;;;;;;12.50;11.50;;;;;9.11;64.47;101039.78;146601;654;46017;-81
2022/01/04 03:18:51;;;;;;;;;16.75;10.50;;;;;9.13;64.64;101039.06;146601;588;46008;-87
2022/01/04 03:21:46;;;;;;;;;15.25;13.50;;;;;9.20;64.38;101049.00;146601;595;46010;-86
2022/01/04 03:24:38;;;;;;;;;15.25;11.75;;;;;9.27;64.96;101045.09;146601;659;46020;-77
2022/01/04 03:27:31;;;;;;;;;20.75;16.75;;;;;9.27;64.90;101045.09;146599;601;46016;-73
2022/01/04 03:30:23;;;;;;;;;15.75;14.25;;;;;9.21;65.96;101042.12;146601;577;46020;-73
2022/01/04 03:33:15;;;;;;;;;9.50;9.50;;;;;9.17;65.32;101047.91;146599;634;46016;-73
2022/01/04 03:36:09;;;;;;;;;14.25;13.50;;;;;9.08;65.81;101042.16;146603;577;46020;-77
2022/01/04 03:39:04;;;;;;;;;13.50;10.00;;;;;9.06;65.94;101049.81;146598;609;47010;-74
2022/01/04 03:41:56;;;;;;;;;13.50;11.00;;;;;9.03;66.09;101047.03;146601;647;46021;-80
2022/01/04 03:44:48;;;;;;;;;10.00;9.00;;;;;8.99;66.76;101050.25;146597;584;46010;-79
2022/01/04 03:47:41;;;;;;;;;13.25;11.25;;;;;8.99;65.11;101055.41;146602;564;46021;-74
2022/01/04 03:50:33;;;;;;;;;17.50;15.00;;;;;8.98;66.67;101056.22;146599;604;46016;-79
2022/01/04 03:53:25;;;;;;;;;16.50;13.50;;;;;9.01;65.83;101062.47;146603;628;46021;-83
2022/01/04 03:56:18;;;;;;;;;16.75;12.50;;;;;9.06;65.74;101056.69;146598;606;46033;-84
2022/01/04 03:59:10;;;;;;;;;23.50;22.25;;;;;9.11;66.17;101052.72;146604;616;46008;-73
2022/01/04 04:02:03;;;;;;;;;33.00;28.00;;;;;9.13;65.45;101054.59;146596;682;47010;-74
2022/01/04 04:04:55;;;;;;;;;43.50;34.75;;;;;9.14;65.70;101064.13;146599;612;46020;-74
2022/01/04 04:07:47;;;;;;;;;47.00;37.00;;;;;9.12;66.34;101057.97;146598;570;47010;-75
2022/01/04 04:10:39;;;;;;;;;21.50;19.50;;;;;8.00;66.69;100874.22;146600;711;46020;-73
2022/01/04 04:13:31;;;;;;;;;45.00;37.50;;;;;9.01;65.99;101066.75;146601;624;46010;-74
2022/01/04 04:16:24;;;;;;;;;43.75;34.75;;;;;8.98;65.38;101056.22;146601;590;46020;-72
2022/01/04 04:19:16;;;;;;;;;22.00;22.00;;;;;8.96;65.48;101055.22;146597;647;47010;-73
2022/01/04 04:22:09;;;;;;;;;18.50;14.75;;;;;8.88;66.00;101053.84;146602;626;46020;-73
2022/01/04 04:25:01;;;;;;;;;22.50;15.50;;;;;8.78;66.45;101054.94;146599;588;46016;-75
2022/01/04 04:27:53;;;;;;;;;16.50;15.50;;;;;8.70;66.31;101058.75;146602;580;46020;-75
2022/01/04 04:30:45;;;;;;;;;18.25;16.75;;;;;8.63;65.86;101057.47;146599;650;47010;-75
2022/01/04 04:33:37;;;;;;;;;21.25;18.25;;;;;8.62;65.91;101065.09;146604;579;46008;-76
2022/01/04 04:36:31;;;;;;;;;20.75;18.25;;;;;8.59;66.41;101073.56;146598;640;46016;-75
2022/01/04 04:39:23;;;;;;;;;21.25;19.00;;;;;8.55;67.25;101079.34;146599;603;46012;-75
2022/01/04 04:42:15;;;;;;;;;13.75;13.50;;;;;8.44;67.09;101076.06;146599;583;46010;-75
2022/01/04 04:45:09;;;;;;;;;24.75;17.00;;;;;8.34;67.36;101074.50;146600;599;46020;-75
2022/01/04 04:48:01;;;;;;;;;14.25;14.25;;;;;8.27;67.25;101082.66;146598;597;46917;-75
2022/01/04 04:50:53;;;;;;;;;17.75;15.50;;;;;8.22;67.56;101081.44;146603;726;46020;-75
2022/01/04 04:53:45;;;;;;;;;15.00;14.25;;;;;8.19;68.33;101078.66;146599;577;46010;-76
2022/01/04 04:56:40;;;;;;;;;12.75;12.75;;;;;8.14;67.95;101076.59;146602;589;46008;-79
2022/01/04 04:59:32;;;;;;;;;14.25;14.25;;;;;8.10;68.16;101075.50;146602;570;46017;-82
2022/01/04 05:02:24;;;;;;;;;16.00;15.00;;;;;8.09;67.47;101084.91;146602;578;46008;-83
2022/01/04 05:05:17;;;;;;;;;14.25;12.75;;;;;8.10;67.53;101088.41;146600;577;46031;-81
2022/01/04 05:08:10;;;;;;;;;13.75;11.50;;;;;8.09;68.22;101092.66;146600;647;46021;-81
2022/01/04 05:11:02;;;;;;;;;13.25;12.00;;;;;8.09;67.47;101097.81;146600;573;46010;-81
2022/01/04 05:13:53;;;;;;;;;16.00;15.00;;;;;8.12;66.92;101098.84;146601;565;47008;-81
2022/01/04 05:16:46;;;;;;;;;17.75;11.50;;;;;8.13;66.75;101098.03;146601;564;46019;-73
2022/01/04 05:19:38;;;;;;;;;12.25;11.75;;;;;8.12;67.17;101109.16;146605;561;45020;-74
2022/01/04 05:22:30;;;;;;;;;14.50;11.50;;;;;8.08;66.58;101115.81;146597;612;47010;-82
2022/01/04 05:25:23;;;;;;;;;14.50;13.75;;;;;8.08;66.48;101119.28;146605;615;46008;-79
2022/01/04 05:28:15;;;;;;;;;15.00;12.50;;;;;8.08;65.77;101118.41;146596;590;49917;-78
2022/01/04 05:31:07;;;;;;;;;13.25;13.25;;;;;8.09;66.55;101118.47;146603;640;46021;-78
2022/01/04 05:34:00;;;;;;;;;19.75;17.75;;;;;8.07;66.15;101121.78;146598;616;47010;-83
2022/01/04 05:36:51;;;;;;;;;16.25;15.25;;;;;8.03;65.87;101128.41;146600;601;46008;-74
2022/01/04 05:39:44;;;;;;;;;21.50;18.75;;;;;7.97;66.80;101127.09;146598;607;46917;-74
2022/01/04 05:42:36;;;;;;;;;18.75;16.00;;;;;7.93;66.71;101127.69;146598;612;46919;-75
2022/01/04 05:45:28;;;;;;;;;19.50;18.00;;;;;7.86;66.44;101129.84;146596;566;46016;-73
2022/01/04 05:48:21;;;;;;;;;18.00;17.00;;;;;7.85;67.14;101130.66;146606;579;45020;-75
2022/01/04 05:51:13;;;;;;;;;19.00;16.25;;;;;7.85;66.36;101129.75;146599;650;46012;-74
2022/01/04 05:54:05;;;;;;;;;15.50;12.75;;;;;7.84;66.86;101141.75;146603;595;46021;-74
2022/01/04 05:56:57;;;;;;;;;22.75;19.75;;;;;7.81;66.90;101144.12;146597;593;47010;-76
2022/01/04 05:59:50;;;;;;;;;24.75;22.00;;;;;7.82;67.19;101148.50;146603;596;46027;-73
2022/01/04 06:02:42;;;;;;;;;17.25;14.75;;;;;7.80;67.43;101146.59;146599;578;46016;-73
2022/01/04 06:05:35;;;;;;;;;16.00;15.75;;;;;7.76;67.78;101153.25;146601;602;46020;-74
2022/01/04 06:08:34;;;;;;;;;20.50;16.00;;;;;7.75;67.71;101150.53;146599;600;46010;-74
2022/01/04 06:11:55;;;;;;;;;20.25;18.75;;;;;7.77;67.91;101151.56;146601;639;46020;-75
2022/01/04 06:14:50;;;;;;;;;111.33;91.33;;;;;7.79;68.09;101156.03;146599;659;47010;-75
2022/01/04 06:17:53;;;;;;;;;51.75;39.25;;;;;7.86;67.03;101150.50;146606;565;47008;-75
2022/01/04 06:20:46;;;;;;;;;51.75;38.25;;;;;7.94;67.36;101148.44;146601;622;46010;-75
2022/01/04 06:23:38;;;;;;;;;69.75;53.00;;;;;8.02;68.28;101146.38;146601;653;46008;-80
2022/01/04 06:26:32;;;;;;;;;18.25;16.50;;;;;7.99;67.95;101134.16;146598;609;46029;-82
2022/01/04 06:29:24;;;;;;;;;15.50;15.25;;;;;7.98;67.29;101140.12;146603;564;46021;-83
2022/01/04 06:32:17;;;;;;;;;16.25;14.00;;;;;8.00;67.58;101137.63;146600;563;46010;-83
2022/01/04 06:35:09;;;;;;;;;45.25;36.50;;;;;8.01;68.25;101145.50;146602;667;46008;-74
2022/01/04 06:38:01;;;;;;;;;24.75;22.25;;;;;8.06;66.85;101143.22;146598;615;46019;-75
2022/01/04 06:40:53;;;;;;;;;25.75;23.50;;;;;8.20;67.73;101150.22;146603;577;47008;-75
2022/01/04 06:43:46;;;;;;;;;26.00;22.25;;;;;8.55;67.11;101144.84;146601;629;46016;-78
2022/01/04 06:46:41;;;;;;;;;17.25;16.25;;;;;9.19;65.35;101145.53;146603;601;46008;-78
2022/01/04 06:49:33;;;;;;;;;24.75;19.75;;;;;10.06;64.91;101144.84;146598;569;46016;-78
2022/01/04 06:52:55;;;;;;;;;24.25;19.75;;;;;10.97;61.98;101150.12;146602;599;46028;-79
2022/01/04 06:56:06;;;;;;;;;20.25;17.75;;;;;12.02;60.68;101152.37;146598;579;46016;-79
2022/01/04 06:58:58;;;;;;;;;44.50;34.50;;;;;12.99;57.90;101154.63;146602;681;46021;-79
2022/01/04 07:01:51;;;;;;;;;47.50;38.25;;;;;13.85;55.10;101147.41;146595;591;47010;-80
2022/01/04 07:04:43;;;;;;;;;22.75;21.75;;;;;14.53;52.31;101166.91;146600;616;46023;-77
2022/01/04 07:07:35;;;;;;;;;33.75;26.50;;;;;15.04;51.41;101168.09;146601;579;46011;-78
2022/01/04 07:10:28;;;;;;;;;31.25;26.50;;;;;15.58;51.94;101165.87;146605;574;46020;-76
2022/01/04 07:13:20;;;;;;;;;21.75;18.75;;;;;15.46;51.24;101018.22;146597;604;47010;-78
2022/01/04 07:16:12;;;;;;;;;29.00;22.75;;;;;17.16;48.76;101168.78;146599;570;47008;-82
2022/01/04 07:19:04;;;;;;;;;21.75;20.00;;;;;17.78;48.02;101169.81;146597;640;46016;-76
2022/01/04 07:21:56;;;;;;;;;24.00;24.00;;;;;18.46;46.55;101175.19;146603;614;46021;-78
2022/01/04 07:24:49;;;;;;;;;29.25;26.50;;;;;19.09;44.98;101176.81;146596;613;47010;-80
2022/01/04 07:27:41;;;;;;;;;30.25;29.50;;;;;18.79;43.89;101043.87;146604;648;46020;-81
2022/01/04 07:30:33;;;;;;;;;30.25;23.25;;;;;19.96;43.06;101183.13;146597;565;46919;-82
2022/01/04 07:33:25;;;;;;;;;31.75;28.75;;;;;20.15;42.28;101187.88;146601;563;46008;-71
2022/01/04 07:36:19;;;;;;;;;30.25;25.00;;;;;20.18;42.06;101185.31;146601;579;46010;-71
2022/01/04 07:39:12;;;;;;;;;31.75;28.00;;;;;20.25;42.56;101184.59;146603;611;46020;-72
2022/01/04 07:42:04;;;;;;;;;32.75;29.50;;;;;20.33;42.08;101191.75;146596;696;47010;-71
2022/01/04 07:44:56;;;;;;;;;35.25;30.00;;;;;20.42;42.17;101189.28;146603;627;46021;-72
2022/01/04 07:47:48;;;;;;;;;35.75;31.00;;;;;20.44;41.24;101192.84;146599;620;46918;-71
2022/01/04 07:50:41;;;;;;;;;32.75;30.00;;;;;19.28;40.53;101042.31;146603;622;46008;-71
2022/01/04 07:53:34;;;;;;;;;32.00;28.00;;;;;19.76;42.09;101199.41;146600;575;46010;-71
2022/01/04 07:56:26;;;;;;;;;21.50;19.75;;;;;19.48;45.73;101204.88;146603;605;46020;-69
2022/01/04 07:59:18;;;;;;;;;37.00;25.75;;;;;19.27;44.85;101203.53;146600;586;46017;-77
2022/01/04 08:02:11;;;;;;;;;32.75;29.25;;;;;18.34;44.07;101060.25;146602;594;46008;-69
2022/01/04 08:05:04;;;;;;;;;24.00;22.00;;;;;19.03;45.65;101197.69;146595;595;47011;-71
2022/01/04 08:07:56;;;;;;;;;25.50;21.25;;;;;18.11;44.69;101045.66;146601;615;46008;-69
2022/01/04 08:10:50;;;;;;;;;31.75;26.25;;;;;18.89;46.45;101195.59;146597;686;47010;-67
2022/01/04 08:13:42;;;;;;;;;35.00;31.00;;;;;18.86;45.31;101184.12;146600;589;47008;-68
2022/01/04 08:16:34;;;;;;;;;29.25;28.25;;;;;18.76;45.61;101180.41;146598;656;46016;-68
2022/01/04 08:19:26;;;;;;;;;27.75;25.00;;;;;18.68;45.58;101182.78;146601;569;46020;-69
2022/01/04 08:22:18;;;;;;;;;27.25;24.00;;;;;18.60;46.07;101176.47;146596;581;46016;-69
2022/01/04 08:25:12;;;;;;;;;26.00;24.00;;;;;18.59;45.90;101179.03;146600;614;46026;-71
2022/01/04 08:28:05;;;;;;;;;31.00;29.00;;;;;18.60;45.73;101183.47;146599;621;46026;-71
2022/01/04 08:30:57;;;;;;;;;34.75;32.00;;;;;18.63;46.33;101180.91;146604;581;45020;-71
2022/01/04 08:33:49;;;;;;;;;25.50;23.75;;;;;18.56;44.48;101185.09;146599;580;46016;-71
2022/01/04 08:36:41;;;;;;;;;24.00;19.25;;;;;18.43;46.49;101167.25;146599;615;46021;-70
2022/01/04 08:39:34;;;;;;;;;22.25;21.00;;;;;18.36;45.69;101171.44;146598;610;46918;-71
2022/01/04 08:42:26;;;;;;;;;22.50;18.25;;;;;18.35;44.79;101164.44;146602;586;46021;-71
2022/01/04 08:45:21;;;;;;;;;19.75;17.25;;;;;18.28;44.44;101170.34;146597;655;47010;-70
2022/01/04 08:48:13;;;;;;;;;31.25;29.00;;;;;18.17;46.02;101161.31;146603;617;46008;-71
2022/01/04 08:51:05;;;;;;;;;25.25;24.50;;;;;18.13;45.61;101160.34;146600;613;46017;-71
2022/01/04 08:53:57;;;;;;;;;34.00;28.25;;;;;18.12;46.33;101166.41;146605;643;45020;-71
2022/01/04 08:56:49;;;;;;;;;23.75;19.25;;;;;18.13;46.54;101162.97;146600;603;46010;-70
2022/01/04 08:59:41;;;;;;;;;27.00;25.50;;;;;18.15;46.48;101160.38;146602;591;46008;-71
2022/01/04 09:02:35;;;;;;;;;23.25;23.00;;;;;18.18;46.83;101161.34;146598;570;46016;-71
2022/01/04 09:05:28;;;;;;;;;23.50;20.00;;;;;18.32;46.96;101169.59;146601;581;46033;-71
2022/01/04 09:08:20;;;;;;;;;24.00;23.00;;;;;18.50;46.89;101158.66;146598;582;46016;-70
2022/01/04 09:11:12;;;;;;;;;31.25;24.75;;;;;18.64;44.57;101161.66;146599;637;47009;-71
2022/01/04 09:14:24;;;;;;;;;25.25;23.50;;;;;18.77;46.21;101161.16;146599;628;46016;-71
2022/01/04 09:20:27;;;;;;;;;33.25;29.25;;;;;19.23;44.08;101158.75;146596;652;46034;-71
2022/01/04 09:23:22;;;;;;;;;30.75;28.25;;;;;19.35;45.08;101162.53;146599;579;47008;-71
2022/01/04 09:26:14;;;;;;;;;25.00;20.75;;;;;19.49;43.88;101151.41;146596;657;46016;-71
2022/01/04 09:29:07;;;;;;;;;43.75;36.00;;;;;19.61;43.78;101147.31;146604;604;46008;-72
2022/01/04 09:32:00;;;;;;;;;36.25;29.00;;;;;19.64;43.30;101141.25;146597;570;46016;-71
2022/01/04 09:34:53;;;;;;;;;28.25;27.25;;;;;19.58;44.56;101136.72;146603;580;46020;-71
2022/01/04 09:37:46;;;;;;;;;28.75;24.75;;;;;19.56;42.04;101135.81;146597;605;46016;-71
2022/01/04 09:40:39;;;;;;;;;28.00;25.00;;;;;19.52;45.36;101127.81;146600;558;47008;-71
2022/01/04 09:43:33;;;;;;;;;52.75;41.75;;;;;19.58;43.01;101122.69;146596;620;47010;-71
2022/01/04 09:46:26;;;;;;;;;40.75;33.75;;;;;19.53;44.34;101119.06;146602;682;46020;-71
2022/01/04 09:49:19;;;;;;;;;62.50;49.25;;;;;19.47;44.10;101116.28;146598;585;46016;-71
2022/01/04 09:52:19;;;;;;;;;62.75;48.50;;;;;19.53;42.98;101111.16;146602;659;46020;-71
2022/01/04 09:55:13;;;;;;;;;51.25;40.50;;;;;19.60;44.47;101103.44;146597;597;47010;-71
2022/01/04 09:58:05;;;;;;;;;48.50;40.00;;;;;19.73;42.85;101107.25;146601;591;47008;-71
2022/01/04 10:00:57;;;;;;;;;46.50;37.25;;;;;19.81;43.46;101102.13;146598;657;46012;-71
2022/01/04 10:03:50;;;;;;;;;28.50;28.50;;;;;19.88;43.53;101097.87;146605;564;46021;-72
2022/01/04 10:06:43;;;;;;;;;31.25;28.50;;;;;19.91;44.25;101098.84;146600;700;46010;-70
2022/01/04 10:09:52;;;;;;;;;26.25;24.50;;;;;19.93;46.34;101096.22;146609;664;46008;-71
2022/01/04 10:13:01;;;;;;;;;26.75;25.50;;;;;19.97;45.62;101079.59;146598;572;47010;-71
2022/01/04 10:15:53;;;;;;;;;18.75;17.25;;;;;20.01;46.36;101084.09;146604;691;46020;-72
2022/01/04 10:18:51;;;;;;;;;19.50;17.50;;;;;20.06;46.17;101077.16;146598;617;47010;-70
2022/01/04 10:21:44;;;;;;;;;20.00;17.00;;;;;20.05;45.11;101071.00;146602;606;47008;-71
2022/01/04 10:24:36;;;;;;;;;15.75;15.50;;;;;19.94;43.86;101077.84;146599;598;46010;-71
2022/01/04 10:27:44;;;;;;;;;16.00;15.50;;;;;19.88;45.67;101068.94;146602;601;46021;-71
2022/01/04 10:30:43;;;;;;;;;21.25;20.00;;;;;19.89;44.93;101065.44;146598;591;46019;-71
2022/01/04 10:33:36;;;;;;;;;18.25;16.00;;;;;19.92;45.23;101063.75;146605;584;45021;-70
2022/01/04 10:36:28;;;;;;;;;13.50;11.75;;;;;19.97;43.87;101056.84;146601;576;46010;-71
2022/01/04 10:39:20;;;;;;;;;12.25;11.00;;;;;20.01;45.17;101055.13;146600;701;46020;-70
2022/01/04 10:42:13;;;;;;;;;12.00;11.75;;;;;20.10;45.73;101052.66;146600;679;46016;-71
2022/01/04 10:45:27;;;;;;;;;17.25;16.25;;;;;18.69;46.71;100766.94;146604;584;46020;-70
2022/01/04 10:51:08;;;;;;;;;15.50;14.25;;;;;20.49;45.31;101031.34;146607;584;46020;-70
2022/01/04 10:56:42;;;;;;;;;12.50;12.50;;;;;20.64;43.49;101027.22;146604;467;46008;-69
2022/01/04 10:59:38;;;;;;;;;18.50;15.75;;;;;20.67;44.68;101024.66;146599;689;46016;-70
2022/01/04 11:02:37;;;;;;;;;14.00;13.00;;;;;20.69;43.73;101015.03;146602;642;46008;-69
2022/01/04 11:05:29;;;;;;;;;15.25;14.00;;;;;20.69;44.34;101021.16;146600;621;46016;-69
2022/01/04 11:08:22;;;;;;;;;14.00;14.00;;;;;20.68;43.20;101008.84;146603;597;46020;-70
2022/01/04 11:11:17;;;;;;;;;14.75;13.50;;;;;20.62;44.17;101002.59;146597;569;46011;-70
2022/01/04 11:14:10;;;;;;;;;14.25;12.75;;;;;20.46;43.35;100996.19;146601;667;46020;-70
2022/01/04 11:17:03;;;;;;;;;17.50;15.00;;;;;20.18;43.77;100986.97;146599;605;46010;-71
2022/01/04 11:19:57;;;;;;;;;17.50;15.75;;;;;19.96;44.29;100997.13;146600;604;46021;-70
2022/01/04 11:22:51;;;;;;;;;14.00;11.00;;;;;19.79;44.45;100994.22;146600;572;46016;-70
2022/01/04 11:25:47;;;;;;;;;17.75;13.75;;;;;19.64;44.17;100988.69;146598;650;46020;-71
2022/01/04 11:28:43;;;;;;;;;16.50;15.50;;;;;19.53;45.21;100990.19;146601;600;46016;-70
2022/01/04 11:32:01;;;;;;;;;19.00;16.50;;;;;19.47;45.88;100985.72;146602;656;47008;-70
2022/01/04 11:35:26;;;;;;;;;12.00;12.00;;;;;19.03;46.28;100934.88;146597;569;47010;-70
2022/01/04 11:38:34;;;;;;;;;14.75;13.50;;;;;19.29;46.73;100986.22;146600;713;47008;-69
2022/01/04 11:41:45;;;;;;;;;14.75;13.50;;;;;19.37;47.56;100982.00;146600;570;46017;-71
2022/01/04 11:44:46;;;;;;;;;15.50;15.00;;;;;19.58;44.58;100975.38;146602;576;47012;-70
2022/01/04 11:47:39;;;;;;;;;16.00;13.25;;;;;19.72;44.85;100967.75;146599;564;46031;-69
2022/01/04 11:50:39;;;;;;;;;12.50;11.25;;;;;19.73;45.01;100965.16;146602;699;46020;-69
2022/01/04 11:53:32;;;;;;;;;15.25;15.25;;;;;19.71;45.31;100964.25;146597;577;47010;-70
2022/01/04 11:56:23;;;;;;;;;14.50;12.25;;;;;19.90;45.00;100969.84;146599;571;47008;-71
2022/01/04 11:59:43;;;;;;;;;15.50;14.00;;;;;20.05;44.95;100965.72;146599;699;46010;-70
2022/01/04 12:02:39;;;;;;;;;20.00;18.00;;;;;19.99;44.79;100962.09;146605;579;45021;-70
2022/01/04 12:05:32;;;;;;;;;17.75;15.00;;;;;20.11;44.84;100961.41;146598;618;46016;-72
2022/01/04 12:08:29;;;;;;;;;17.00;16.50;;;;;20.34;44.07;100957.38;146602;573;46020;-71
2022/01/04 12:11:49;;;;;;;;;15.25;15.25;;;;;19.57;44.37;100787.75;146596;595;47012;-71
2022/01/04 12:14:41;;;;;;;;;13.25;12.75;;;;;20.69;42.77;100949.16;146602;597;46008;-71
2022/01/04 12:17:42;;;;;;;;;16.25;15.75;;;;;20.85;42.74;100945.84;146599;599;46018;-71
2022/01/04 12:21:35;;;;;;;;;12.75;11.25;;;;;20.00;43.23;100771.72;146602;588;46020;-70
2022/01/04 12:24:29;;;;;;;;;15.25;15.25;;;;;21.05;43.36;100932.88;146597;575;47010;-71
2022/01/04 12:27:21;;;;;;;;;12.75;11.50;;;;;21.22;42.58;100923.44;146600;563;46020;-71
2022/01/04 12:30:32;;;;;;;;;13.75;13.50;;;;;21.40;43.35;100922.78;146597;563;47010;-72
2022/01/04 12:33:43;;;;;;;;;17.25;15.50;;;;;21.48;42.73;100925.47;146602;628;46020;-72
2022/01/04 12:36:41;;;;;;;;;16.50;14.25;;;;;21.43;42.27;100932.44;146597;656;47010;-72
2022/01/04 12:39:44;;;;;;;;;15.50;14.00;;;;;21.47;43.07;100929.00;146602;582;47021;-72
2022/01/04 12:42:36;;;;;;;;;13.75;12.50;;;;;21.61;40.89;100921.19;146598;579;46016;-72
2022/01/04 12:45:28;;;;;;;;;15.25;13.25;;;;;21.80;41.79;100915.22;146604;578;46020;-72
2022/01/04 12:48:20;;;;;;;;;17.75;15.75;;;;;21.99;40.08;100907.44;146600;579;47011;-72
2022/01/04 12:51:31;;;;;;;;;13.50;13.00;;;;;22.13;42.72;100911.06;146604;686;46020;-71
2022/01/04 12:54:35;;;;;;;;;14.25;13.00;;;;;22.22;42.78;100911.16;146595;707;46017;-71
2022/01/04 12:57:27;;;;;;;;;13.67;10.00;;;;;22.28;40.83;100903.28;146602;614;46020;-72
2022/01/04 13:00:23;;;;;;;;;12.25;12.25;;;;;22.39;41.17;100897.16;146597;607;46010;-71
2022/01/04 13:03:34;;;;;;;;;17.25;14.50;;;;;22.53;41.02;100899.03;146603;615;46021;-72
2022/01/04 13:06:27;;;;;;;;;15.50;13.25;;;;;22.73;40.08;100901.75;146600;609;46010;-71
2022/01/04 13:09:27;;;;;;;;;11.50;11.00;;;;;22.87;41.71;100896.53;146601;600;46021;-71
2022/01/04 13:12:24;;;;;;;;;13.25;12.50;;;;;22.98;39.48;100894.81;146598;650;47010;-72
2022/01/04 13:15:24;;;;;;;;;15.75;13.75;;;;;23.07;40.94;100891.31;146600;651;46020;-72
2022/01/04 13:18:17;;;;;;;;;12.67;11.00;;;;;23.25;39.85;100893.12;146597;624;47010;-72
2022/01/04 13:21:12;;;;;;;;;9.00;9.00;;;;;23.34;39.95;100895.78;146602;617;47008;-72
2022/01/04 13:24:04;;;;;;;;;14.67;10.67;;;;;23.36;38.99;100893.12;146596;590;46032;-71
2022/01/04 13:26:56;;;;;;;;;12.00;11.00;;;;;23.42;38.34;100896.66;146601;581;46008;-70
2022/01/04 13:29:50;;;;;;;;;9.00;9.00;;;;;23.55;38.89;100886.09;146599;601;46917;-71